»·PEaware :: DETKC KVCV-KSNA

DETKC :: KVCV-KSNA

FLIGHT INFORMATION

Flight Status: Arrived
Operator: Unknown
More flights by this operator :: More flights under this callsign
Pilot: Anonymous 26802 (26802)
Aircraft: PIPER PA-31T-620 CHEYENNE 2
(PAY2)
More flights by this aircraft type
Origin: KVCV Socal Logistics
United States
Destination: KSNA John Wayne-Orange Co
United States
More flights between these airports :: More routes between these airports
Route: +APLES V442 PDZ PDZ270 V363 POXKU V8 SLI
File this flight plan on PilotEdge
Remarks:
Altitude:
(Current/Filed)
12,000ft
Speed:
(Current/Filed)
220kts
Departed: 24-Aug-20 08:35 AM
Arrived: 24-Aug-20 09:23 AM
Distance/Time
Traveled:
61nm/0:47
Distance/Time
To Go:
Arrived

Flight Plot

Page will automatically refresh every two minutes.

Flight plan parsing failed; only flown route is shown


Map Options




Map Legend


Flown Route
Filed Route
Departure Airport
Arrival Airport
Navaid (VOR, NDB)
Fix

Horizontal Profiles

Position Reports

Time Latitude Longitude Heading Altitude Ground
Speed
24-Aug-20 08:19 34.588333 -117.376341 313 2871ft 0kts
24-Aug-20 08:19 34.588333 -117.376341 313 2871ft 0kts
24-Aug-20 08:20 34.588333 -117.376341 314 2871ft 0kts
24-Aug-20 08:22 34.588334 -117.376342 313 2871ft 0kts
24-Aug-20 08:22 34.588334 -117.376342 313 2871ft 0kts
24-Aug-20 08:23 34.588334 -117.376342 313 2871ft 0kts
24-Aug-20 08:24 34.588334 -117.376342 313 2871ft 0kts
24-Aug-20 08:25 34.588334 -117.376342 313 2871ft 0kts
24-Aug-20 08:26 34.588351 -117.376359 321 2871ft 2kts
24-Aug-20 08:27 34.589416 -117.376853 16 2869ft 14kts
24-Aug-20 08:28 34.593197 -117.372362 70 2860ft 23kts
24-Aug-20 08:29 34.594235 -117.367739 15 2854ft 19kts
24-Aug-20 08:30 34.599157 -117.366609 10 2843ft 0kts
24-Aug-20 08:31 34.599157 -117.366609 10 2843ft 0kts
24-Aug-20 08:32 34.599157 -117.366609 10 2843ft 0kts
24-Aug-20 08:33 34.599972 -117.366496 351 2842ft 8kts
24-Aug-20 08:34 34.596699 -117.371085 224 2858ft 122kts
24-Aug-20 08:35 34.576057 -117.400628 266 4029ft 211kts
24-Aug-20 08:36 34.577741 -117.463226 273 5377ft 239kts
24-Aug-20 08:37 34.579947 -117.528432 272 6742ft 245kts
24-Aug-20 08:38 34.581690 -117.577105 272 7757ft 247kts
24-Aug-20 08:39 34.574621 -117.617415 223 8578ft 250kts
24-Aug-20 08:40 34.546113 -117.623330 158 9261ft 252kts
24-Aug-20 08:41 34.529279 -117.594700 96 9965ft 251kts
24-Aug-20 08:42 34.527871 -117.556041 92 10798ft 249kts
24-Aug-20 08:43 34.527312 -117.532243 91 11309ft 247kts
24-Aug-20 08:44 34.527295 -117.531478 91 11325ft 247kts
24-Aug-20 08:45 34.527264 -117.530086 91 11355ft 247kts
24-Aug-20 08:46 34.519355 -117.441705 130 11985ft 274kts
24-Aug-20 08:47 34.498010 -117.421349 152 11989ft 279kts
24-Aug-20 08:48 34.490821 -117.416779 152 11985ft 280kts
24-Aug-20 08:49 34.423717 -117.381287 157 11981ft 283kts
24-Aug-20 08:50 34.387208 -117.362904 157 11981ft 284kts
24-Aug-20 08:51 34.353472 -117.345926 157 11981ft 284kts
24-Aug-20 08:52 34.319003 -117.328566 157 11981ft 284kts
24-Aug-20 08:53 34.285046 -117.312299 167 11970ft 284kts
24-Aug-20 08:54 34.251036 -117.323529 204 11984ft 283kts
24-Aug-20 08:55 34.217849 -117.344798 210 11982ft 284kts
24-Aug-20 08:56 34.185037 -117.368108 210 11981ft 284kts
24-Aug-20 08:57 34.150506 -117.392606 210 11981ft 284kts
24-Aug-20 08:58 34.115695 -117.417310 210 11981ft 284kts
24-Aug-20 08:59 34.078322 -117.443815 210 11981ft 284kts
24-Aug-20 09:00 34.041187 -117.469927 207 11497ft 276kts
24-Aug-20 09:01 34.001309 -117.489081 199 10514ft 265kts
24-Aug-20 09:02 33.967581 -117.502900 198 9438ft 240kts
24-Aug-20 09:03 33.935829 -117.515616 198 8348ft 228kts
24-Aug-20 09:04 33.916802 -117.542142 270 7248ft 223kts
24-Aug-20 09:05 33.925325 -117.581797 289 6120ft 217kts
24-Aug-20 09:06 33.934044 -117.618792 282 5974ft 182kts
24-Aug-20 09:07 33.940307 -117.653274 282 5958ft 163kts
24-Aug-20 09:08 33.946620 -117.688000 282 5354ft 181kts
24-Aug-20 09:09 33.951845 -117.726321 262 4726ft 188kts
24-Aug-20 09:10 33.944358 -117.765075 253 4105ft 190kts
24-Aug-20 09:11 33.922281 -117.786350 183 4016ft 167kts
24-Aug-20 09:12 33.889721 -117.788208 182 3367ft 186kts
24-Aug-20 09:13 33.855053 -117.789982 182 3014ft 174kts
24-Aug-20 09:14 33.823600 -117.791554 182 3015ft 158kts
24-Aug-20 09:15 33.795484 -117.794057 191 2703ft 166kts
24-Aug-20 09:16 33.768785 -117.810858 216 2153ft 163kts
24-Aug-20 09:17 33.744827 -117.825485 203 1493ft 139kts
24-Aug-20 09:18 33.722730 -117.839130 205 1037ft 128kts
24-Aug-20 09:19 33.701581 -117.852462 210 558ft 122kts
24-Aug-20 09:20 33.684041 -117.863540 209 154ft 122kts
24-Aug-20 09:21 33.671936 -117.871229 207 60ft 53kts
24-Aug-20 09:22 33.668940 -117.871291 134 60ft 0kts
24-Aug-20 09:23 33.669887 -117.869649 57 60ft 20kts
24-Aug-20 09:24 33.670040 -117.869437 44 60ft 0kts

Navigation Log

Ident Type
Flight plan parsing failed, navigation log unavailable